Time;durP1;ratioP1;P1;durP2;ratioP2;P2;SDS_P1;SDS_P2;PMS_P1;PMS_P2;Temp;Humidity;BMP_temperature;BMP_pressure;BME280_temperature;BME280_humidity;BME280_pressure;Samples;Min_cycle;Max_cycle;Signal;HPM_P1;HPM_P2
2023/05/13 00:00:18;;;;;;;1.50;1.10;;;13.20;98.20;;;;;;5043704;28;20485;-81
2023/05/13 00:02:45;;;;;;;1.50;1.10;;;13.20;98.20;;;;;;5034189;28;20487;-80
2023/05/13 00:05:12;;;;;;;1.50;1.00;;;13.10;98.20;;;;;;5050093;28;20460;-80
2023/05/13 00:07:41;;;;;;;1.50;1.10;;;13.10;98.20;;;;;;5055062;28;20492;-80
2023/05/13 00:10:09;;;;;;;1.50;1.10;;;13.20;98.20;;;;;;5048591;28;20522;-80
2023/05/13 00:12:36;;;;;;;1.50;1.00;;;13.10;98.20;;;;;;5036219;28;20471;-79
2023/05/13 00:15:03;;;;;;;1.50;1.00;;;13.10;98.20;;;;;;5033820;28;20461;-80
2023/05/13 00:17:30;;;;;;;1.50;1.00;;;13.10;98.20;;;;;;5034271;28;20509;-81
2023/05/13 00:19:57;;;;;;;1.50;1.00;;;13.10;98.20;;;;;;5042789;28;20512;-81
2023/05/13 00:22:23;;;;;;;1.50;1.00;;;13.10;98.20;;;;;;5037463;28;20548;-81
2023/05/13 00:24:52;;;;;;;1.50;1.10;;;13.10;98.20;;;;;;5044615;28;20545;-81
2023/05/13 00:27:18;;;;;;;1.50;1.10;;;13.10;98.20;;;;;;5035604;28;21070;-81
2023/05/13 00:29:45;;;;;;;1.50;1.20;;;13.10;98.20;;;;;;5042635;28;20577;-80
2023/05/13 00:32:12;;;;;;;1.50;1.10;;;13.00;98.20;;;;;;5038382;28;20604;-82
2023/05/13 00:34:39;;;;;;;1.50;1.20;;;13.00;98.20;;;;;;5047174;28;20465;-82
2023/05/13 00:37:08;;;;;;;1.50;1.10;;;13.00;98.20;;;;;;5039797;28;20536;-81
2023/05/13 00:39:36;;;;;;;1.50;1.10;;;13.00;98.20;;;;;;5050860;28;20494;-83
2023/05/13 00:42:05;;;;;;;1.50;1.00;;;12.90;98.20;;;;;;5037393;28;20604;-79
2023/05/13 00:44:33;;;;;;;1.50;1.10;;;12.90;98.20;;;;;;5042563;28;20452;-81
2023/05/13 00:47:00;;;;;;;1.50;1.10;;;12.90;98.20;;;;;;5027068;28;20487;-81
2023/05/13 00:49:27;;;;;;;1.50;1.10;;;12.90;98.20;;;;;;5036032;28;20988;-82
2023/05/13 00:51:55;;;;;;;1.50;1.10;;;12.90;98.20;;;;;;5036171;28;20489;-80
2023/05/13 00:54:22;;;;;;;1.53;1.20;;;12.90;98.20;;;;;;5050180;28;20521;-80
2023/05/13 00:56:53;;;;;;;1.50;1.00;;;12.90;98.20;;;;;;5037802;28;20501;-82
2023/05/13 00:59:21;;;;;;;1.50;1.10;;;12.90;98.20;;;;;;5041759;28;20454;-82
2023/05/13 01:01:57;;;;;;;1.50;1.10;;;12.90;98.20;;;;;;5036606;28;20483;-82
2023/05/13 01:04:37;;;;;;;1.50;1.00;;;12.90;98.20;;;;;;5042458;28;20885;-81
2023/05/13 01:07:20;;;;;;;1.50;1.00;;;12.90;98.20;;;;;;5025514;28;20572;-84
2023/05/13 01:09:56;;;;;;;1.50;1.00;;;12.90;98.20;;;;;;5036263;28;20471;-81
2023/05/13 01:12:31;;;;;;;1.50;1.10;;;12.90;98.20;;;;;;5040015;28;20530;-80
2023/05/13 01:15:06;;;;;;;1.50;1.10;;;12.90;98.20;;;;;;5037439;28;20513;-81
2023/05/13 01:17:40;;;;;;;1.50;1.10;;;13.00;98.20;;;;;;5040417;28;20569;-80
2023/05/13 01:20:09;;;;;;;1.50;1.00;;;12.90;98.20;;;;;;5031717;28;20550;-79
2023/05/13 01:22:38;;;;;;;1.50;1.00;;;13.00;98.20;;;;;;5041162;28;20524;-80
2023/05/13 01:25:05;;;;;;;1.50;1.00;;;12.90;98.20;;;;;;5036792;28;20848;-81
2023/05/13 01:27:32;;;;;;;1.50;1.10;;;12.90;98.20;;;;;;5038475;28;20515;-80
2023/05/13 01:30:00;;;;;;;1.50;1.00;;;12.90;98.20;;;;;;5038190;28;21018;-81
2023/05/13 01:32:28;;;;;;;1.50;1.00;;;12.90;98.20;;;;;;5033233;28;20483;-81
2023/05/13 01:34:56;;;;;;;1.50;1.00;;;12.90;98.20;;;;;;5038335;28;20618;-81
2023/05/13 01:37:23;;;;;;;1.50;1.10;;;12.90;98.20;;;;;;5041956;28;20528;-81
2023/05/13 01:39:52;;;;;;;1.50;1.00;;;12.90;98.20;;;;;;5043163;28;20768;-82
2023/05/13 01:42:19;;;;;;;1.50;1.00;;;13.00;98.20;;;;;;5039045;28;20485;-79
2023/05/13 01:44:45;;;;;;;1.50;1.00;;;13.00;98.20;;;;;;5041971;28;20465;-81
2023/05/13 01:47:12;;;;;;;1.50;1.00;;;12.90;98.20;;;;;;5034891;28;20479;-81
2023/05/13 01:49:39;;;;;;;1.50;1.00;;;13.00;98.20;;;;;;5037221;28;20493;-81
2023/05/13 01:52:07;;;;;;;1.50;1.00;;;12.90;98.20;;;;;;5032339;28;20487;-80
2023/05/13 01:54:33;;;;;;;1.50;1.00;;;12.90;98.20;;;;;;5053279;28;20458;-80
2023/05/13 01:57:02;;;;;;;1.50;1.10;;;12.90;98.20;;;;;;5038818;28;20479;-81
2023/05/13 01:59:28;;;;;;;1.50;1.10;;;12.90;98.20;;;;;;5035751;28;20455;-80
2023/05/13 02:01:55;;;;;;;1.50;1.00;;;12.90;98.20;;;;;;5035722;28;20545;-81
2023/05/13 02:04:22;;;;;;;1.50;1.00;;;12.90;98.20;;;;;;5044543;28;20957;-80
2023/05/13 02:06:49;;;;;;;1.50;1.00;;;12.90;98.20;;;;;;5033876;28;20490;-80
2023/05/13 02:09:16;;;;;;;1.50;1.00;;;12.90;98.20;;;;;;5040657;28;20498;-81
2023/05/13 02:11:42;;;;;;;1.50;1.10;;;12.80;98.20;;;;;;5035225;28;21083;-82
2023/05/13 02:14:11;;;;;;;1.50;1.00;;;12.80;98.20;;;;;;5046999;28;20816;-80
2023/05/13 02:16:37;;;;;;;1.50;1.10;;;12.80;98.20;;;;;;5034672;28;20489;-81
2023/05/13 02:19:05;;;;;;;1.50;1.10;;;12.80;98.20;;;;;;5047827;28;20447;-83
2023/05/13 02:21:31;;;;;;;1.50;1.00;;;12.80;98.20;;;;;;5035683;28;20482;-77
2023/05/13 02:23:58;;;;;;;1.50;1.00;;;12.80;98.20;;;;;;5040995;28;20459;-80
2023/05/13 02:26:25;;;;;;;1.50;1.00;;;12.80;98.20;;;;;;5035257;28;20540;-81
2023/05/13 02:28:52;;;;;;;1.50;1.00;;;12.80;98.20;;;;;;5041756;28;20491;-78
2023/05/13 02:31:20;;;;;;;1.50;1.00;;;12.80;98.20;;;;;;5034980;28;20485;-81
2023/05/13 02:33:47;;;;;;;1.50;1.00;;;12.80;98.20;;;;;;5048245;28;20455;-80
2023/05/13 02:36:13;;;;;;;1.50;1.10;;;12.90;98.20;;;;;;5028826;28;20470;-78
2023/05/13 02:38:40;;;;;;;1.50;1.10;;;12.90;98.20;;;;;;5047378;28;20514;-81
2023/05/13 02:41:07;;;;;;;1.50;1.00;;;12.80;98.20;;;;;;5030495;28;20469;-81
2023/05/13 02:43:34;;;;;;;1.50;1.00;;;12.80;98.20;;;;;;5046392;28;20456;-80
2023/05/13 02:46:02;;;;;;;1.50;1.10;;;12.80;98.20;;;;;;5029671;28;20455;-80
2023/05/13 02:48:30;;;;;;;1.50;1.00;;;12.80;98.20;;;;;;5043309;28;20521;-80
2023/05/13 02:50:57;;;;;;;1.50;1.07;;;12.70;98.20;;;;;;5023069;28;20506;-79
2023/05/13 02:53:24;;;;;;;1.50;1.00;;;12.70;98.20;;;;;;5039075;28;20698;-79
2023/05/13 02:55:51;;;;;;;1.50;1.00;;;12.70;98.20;;;;;;5016652;28;20473;-77
2023/05/13 02:58:18;;;;;;;1.50;1.00;;;12.60;98.20;;;;;;5033944;28;20488;-81
2023/05/13 03:00:45;;;;;;;1.50;1.00;;;12.60;98.20;;;;;;5030056;28;20462;-81
2023/05/13 03:03:12;;;;;;;1.50;1.10;;;12.60;98.20;;;;;;5005736;28;20471;-80
2023/05/13 03:05:40;;;;;;;1.50;1.00;;;12.60;98.20;;;;;;5034082;28;20467;-78
2023/05/13 03:08:07;;;;;;;1.50;1.00;;;12.60;98.20;;;;;;5030867;28;20535;-80
2023/05/13 03:10:35;;;;;;;1.50;1.00;;;12.60;98.20;;;;;;5032236;28;20483;-81
2023/05/13 03:13:01;;;;;;;1.50;1.20;;;12.60;98.20;;;;;;5040521;28;20484;-82
2023/05/13 03:15:28;;;;;;;1.50;1.00;;;12.60;98.20;;;;;;5042349;28;20455;-82
2023/05/13 03:17:56;;;;;;;1.50;1.10;;;12.60;98.20;;;;;;5043380;28;20490;-80
2023/05/13 03:20:23;;;;;;;1.50;1.00;;;12.60;98.20;;;;;;5042043;28;20671;-80
2023/05/13 03:22:51;;;;;;;1.50;1.10;;;12.60;98.20;;;;;;5042586;28;20482;-78
2023/05/13 03:25:18;;;;;;;1.50;1.00;;;12.60;98.20;;;;;;5042082;28;20969;-81
2023/05/13 03:27:45;;;;;;;1.50;1.03;;;12.60;98.20;;;;;;5042639;28;20876;-82
2023/05/13 03:30:12;;;;;;;3.40;1.90;;;12.60;98.20;;;;;;5043069;28;20493;-80
2023/05/13 03:32:39;;;;;;;1.50;1.07;;;12.60;98.20;;;;;;5042097;28;20486;-80
2023/05/13 03:35:06;;;;;;;1.50;1.00;;;12.60;98.20;;;;;;5038284;28;20455;-80
2023/05/13 03:37:33;;;;;;;1.50;1.07;;;12.60;98.20;;;;;;5041132;28;20474;-81
2023/05/13 03:40:01;;;;;;;1.50;1.00;;;12.60;98.20;;;;;;5043481;28;21035;-81
2023/05/13 03:42:29;;;;;;;1.50;1.03;;;12.50;98.20;;;;;;5042233;28;20489;-79
2023/05/13 03:44:56;;;;;;;1.50;1.10;;;12.50;98.20;;;;;;5050416;28;20494;-81
2023/05/13 03:47:23;;;;;;;1.50;1.10;;;12.50;98.20;;;;;;5046354;28;20593;-81
2023/05/13 03:49:50;;;;;;;1.50;1.10;;;12.50;98.20;;;;;;5054943;28;20538;-81
2023/05/13 03:52:17;;;;;;;1.50;1.10;;;12.50;98.20;;;;;;5046591;28;20482;-80
2023/05/13 03:54:44;;;;;;;1.50;1.10;;;12.50;98.20;;;;;;5053384;28;20459;-80
2023/05/13 03:57:12;;;;;;;1.50;1.00;;;12.50;98.20;;;;;;5045625;28;20486;-78
2023/05/13 03:59:39;;;;;;;1.50;1.07;;;12.50;98.20;;;;;;5054343;28;20466;-79
2023/05/13 04:02:06;;;;;;;1.50;1.00;;;12.50;98.20;;;;;;5042700;28;20478;-80
2023/05/13 04:04:33;;;;;;;1.50;1.00;;;12.50;98.20;;;;;;5051361;28;20471;-81
2023/05/13 04:07:00;;;;;;;1.50;1.07;;;12.50;98.20;;;;;;5039887;28;21004;-79
2023/05/13 04:09:26;;;;;;;1.50;1.20;;;12.50;98.20;;;;;;5056517;28;20517;-80
2023/05/13 04:11:53;;;;;;;1.50;1.00;;;12.50;98.20;;;;;;5042682;28;20474;-81
2023/05/13 04:14:21;;;;;;;1.50;1.20;;;12.50;98.20;;;;;;5040217;28;20462;-81
2023/05/13 04:16:48;;;;;;;1.50;1.00;;;12.50;98.20;;;;;;5038518;28;20514;-80
2023/05/13 04:19:15;;;;;;;1.50;1.07;;;12.50;98.20;;;;;;5055487;28;20457;-80
2023/05/13 04:21:42;;;;;;;1.50;1.20;;;12.60;98.20;;;;;;5042928;28;20479;-81
2023/05/13 04:24:09;;;;;;;1.50;1.00;;;12.60;98.20;;;;;;5056288;28;20455;-80
2023/05/13 04:26:37;;;;;;;1.50;1.00;;;12.60;98.20;;;;;;5043594;28;20482;-79
2023/05/13 04:29:04;;;;;;;1.50;1.10;;;12.60;98.20;;;;;;5054486;28;20497;-80
2023/05/13 04:31:32;;;;;;;1.50;1.10;;;12.70;98.20;;;;;;5043554;28;20508;-80
2023/05/13 04:33:59;;;;;;;1.50;1.10;;;12.70;98.20;;;;;;5054527;28;20467;-78
2023/05/13 04:36:25;;;;;;;1.50;1.00;;;12.70;98.20;;;;;;5043831;28;20883;-78
2023/05/13 04:38:53;;;;;;;1.50;1.00;;;12.70;98.20;;;;;;5053361;28;20643;-81
2023/05/13 04:41:20;;;;;;;1.50;1.03;;;12.80;98.20;;;;;;5044085;28;20600;-79
2023/05/13 04:43:47;;;;;;;1.50;1.10;;;12.80;98.20;;;;;;5041463;28;20874;-81
2023/05/13 04:46:14;;;;;;;1.50;1.00;;;12.90;98.20;;;;;;5040995;28;20474;-80
2023/05/13 04:48:42;;;;;;;1.50;1.00;;;12.90;98.20;;;;;;5051950;28;20483;-80
2023/05/13 04:51:08;;;;;;;1.50;1.00;;;12.90;98.20;;;;;;5042721;28;20935;-81
2023/05/13 04:53:35;;;;;;;1.50;1.00;;;13.00;98.20;;;;;;5057901;28;20465;-80
2023/05/13 04:56:03;;;;;;;1.50;1.13;;;13.00;98.20;;;;;;5045418;28;20463;-81
2023/05/13 04:58:33;;;;;;;1.50;1.10;;;13.00;98.20;;;;;;5035632;28;21137;-81
2023/05/13 05:01:00;;;;;;;1.50;1.00;;;13.10;98.20;;;;;;5024535;28;20517;-81
2023/05/13 05:03:27;;;;;;;1.50;1.00;;;13.20;98.20;;;;;;5043207;28;20466;-80
2023/05/13 05:05:55;;;;;;;1.50;1.00;;;13.30;98.20;;;;;;5022588;28;20474;-80
2023/05/13 05:08:22;;;;;;;1.50;1.00;;;13.30;98.20;;;;;;5039465;28;20483;-79
2023/05/13 05:10:49;;;;;;;1.50;1.10;;;13.30;98.20;;;;;;5024921;28;20529;-78
2023/05/13 05:13:16;;;;;;;1.50;1.10;;;13.40;98.20;;;;;;5037422;28;20981;-79
2023/05/13 05:15:42;;;;;;;1.50;1.00;;;13.40;98.20;;;;;;5036595;28;20473;-79
2023/05/13 05:18:09;;;;;;;1.50;1.10;;;13.50;98.20;;;;;;5030645;28;20487;-81
2023/05/13 05:20:37;;;;;;;1.50;1.00;;;13.50;98.20;;;;;;5032396;28;20456;-80
2023/05/13 05:23:06;;;;;;;1.50;1.00;;;13.50;98.20;;;;;;5049822;28;20482;-80
2023/05/13 05:25:32;;;;;;;1.50;1.00;;;13.60;98.20;;;;;;5025932;28;20474;-80
2023/05/13 05:27:59;;;;;;;1.50;1.10;;;13.60;98.20;;;;;;5023506;28;20540;-80
2023/05/13 05:30:26;;;;;;;1.50;1.00;;;13.70;98.20;;;;;;5033369;28;20893;-80
2023/05/13 05:32:53;;;;;;;1.50;1.00;;;13.70;98.20;;;;;;5030318;28;20471;-80
2023/05/13 05:35:20;;;;;;;1.50;1.00;;;13.80;98.20;;;;;;5034168;28;20459;-79
2023/05/13 05:37:46;;;;;;;1.50;1.03;;;13.80;98.20;;;;;;5035442;28;20544;-80
2023/05/13 05:40:15;;;;;;;1.50;1.00;;;13.90;98.20;;;;;;5035147;28;20454;-80
2023/05/13 05:42:44;;;;;;;1.50;1.00;;;14.00;98.20;;;;;;5047583;28;20477;-80
2023/05/13 05:45:11;;;;;;;1.50;1.00;;;14.10;98.20;;;;;;5033736;28;20463;-79
2023/05/13 05:47:38;;;;;;;1.50;0.90;;;14.10;98.20;;;;;;5026350;28;20492;-80
2023/05/13 05:50:06;;;;;;;1.50;1.00;;;14.20;98.20;;;;;;5032324;28;20479;-79
2023/05/13 05:52:32;;;;;;;1.50;1.00;;;14.20;98.20;;;;;;5026936;28;20481;-80
2023/05/13 05:54:59;;;;;;;1.53;1.00;;;14.30;98.20;;;;;;5032380;28;20474;-79
2023/05/13 05:57:28;;;;;;;1.50;1.00;;;14.30;98.20;;;;;;5028929;28;21275;-80
2023/05/13 05:59:55;;;;;;;1.53;1.00;;;14.40;98.20;;;;;;5035096;28;20491;-81
2023/05/13 06:02:22;;;;;;;1.50;0.90;;;14.50;98.20;;;;;;5028349;28;21048;-81
2023/05/13 06:04:48;;;;;;;1.50;1.00;;;14.50;98.20;;;;;;5036383;28;20539;-82
2023/05/13 06:07:16;;;;;;;1.50;1.00;;;14.60;98.20;;;;;;5028930;28;20518;-80
2023/05/13 06:09:43;;;;;;;1.50;1.00;;;14.70;98.20;;;;;;5040834;28;20568;-81
2023/05/13 06:12:09;;;;;;;1.50;1.00;;;14.80;98.20;;;;;;5039189;28;20517;-80
2023/05/13 06:14:38;;;;;;;1.50;1.10;;;14.80;98.20;;;;;;5044092;28;20831;-80
2023/05/13 06:17:05;;;;;;;1.50;1.10;;;14.90;98.20;;;;;;5038389;28;20477;-80
2023/05/13 06:19:32;;;;;;;3.10;1.73;;;15.00;98.20;;;;;;5045727;28;20465;-80
2023/05/13 06:21:59;;;;;;;1.50;1.00;;;15.00;98.20;;;;;;5029544;28;20577;-79
2023/05/13 06:24:26;;;;;;;1.50;1.00;;;15.10;98.20;;;;;;5036675;28;20948;-80
2023/05/13 06:26:53;;;;;;;1.50;1.00;;;15.10;98.20;;;;;;5028279;28;20514;-81
2023/05/13 06:29:20;;;;;;;1.50;1.00;;;15.20;98.20;;;;;;5039977;28;20462;-82
2023/05/13 06:31:59;;;;;;;1.57;1.00;;;15.20;98.20;;;;;;5033135;28;20489;-81
2023/05/13 06:34:28;;;;;;;1.50;1.00;;;15.30;98.20;;;;;;5046565;28;20554;-81
2023/05/13 06:36:57;;;;;;;1.50;1.00;;;15.40;98.20;;;;;;5041613;28;20481;-81
2023/05/13 06:39:24;;;;;;;1.50;1.10;;;15.40;98.20;;;;;;5047364;28;20522;-81
2023/05/13 06:41:54;;;;;;;1.50;0.90;;;15.50;98.20;;;;;;5029647;28;20482;-81
2023/05/13 06:44:23;;;;;;;1.50;1.00;;;15.60;98.20;;;;;;5035770;28;20487;-82
2023/05/13 06:46:51;;;;;;;1.50;0.90;;;15.70;98.20;;;;;;5023423;28;21018;-82
2023/05/13 06:49:18;;;;;;;1.50;1.00;;;15.80;98.20;;;;;;5043330;28;20459;-82
2023/05/13 06:51:44;;;;;;;1.50;0.90;;;16.00;98.20;;;;;;5036952;28;20894;-82
2023/05/13 06:54:15;;;;;;;1.50;0.97;;;16.10;98.20;;;;;;5046286;28;20458;-81
2023/05/13 06:56:43;;;;;;;1.50;1.00;;;16.20;98.20;;;;;;5037078;28;20486;-82
2023/05/13 06:59:10;;;;;;;1.50;0.90;;;16.30;98.20;;;;;;5047783;28;20451;-82
2023/05/13 07:01:45;;;;;;;1.53;1.00;;;16.50;98.20;;;;;;5033504;28;20489;-82
2023/05/13 07:04:13;;;;;;;1.50;0.93;;;16.70;98.20;;;;;;5042063;28;20465;-82
2023/05/13 07:06:50;;;;;;;1.53;1.00;;;16.90;98.20;;;;;;5028242;28;20509;-82
2023/05/13 07:09:23;;;;;;;1.50;1.00;;;17.10;98.20;;;;;;5045292;28;20454;-83
2023/05/13 07:11:51;;;;;;;1.53;0.93;;;17.30;98.20;;;;;;5029919;28;20491;-82
2023/05/13 07:14:18;;;;;;;1.50;0.90;;;17.50;98.20;;;;;;5038370;28;20455;-81
2023/05/13 07:16:45;;;;;;;1.50;0.97;;;17.80;98.20;;;;;;5032828;28;20568;-82
2023/05/13 07:19:14;;;;;;;1.50;0.90;;;18.10;98.20;;;;;;5041890;28;20459;-82
2023/05/13 07:22:27;;;;;;;1.53;1.00;;;18.30;98.20;;;;;;5025374;28;20570;-82
2023/05/13 07:24:54;;;;;;;1.50;1.00;;;18.50;98.20;;;;;;4967059;28;21001;-81
2023/05/13 07:27:24;;;;;;;1.50;0.90;;;18.70;98.20;;;;;;5018849;28;21039;-81
2023/05/13 07:29:51;;;;;;;1.50;1.00;;;18.70;98.20;;;;;;5036544;28;20463;-81
2023/05/13 07:32:18;;;;;;;1.50;0.90;;;18.70;98.20;;;;;;5028033;28;20474;-81
2023/05/13 07:34:46;;;;;;;1.50;0.90;;;18.70;98.20;;;;;;5033777;28;20486;-82
2023/05/13 07:38:09;;;;;;;1.77;1.53;;;18.70;98.20;;;;;;5032120;28;20494;-81
2023/05/13 07:40:36;;;;;;;1.50;0.90;;;18.70;98.20;;;;;;5034897;28;20506;-81
2023/05/13 07:43:03;;;;;;;1.50;0.90;;;18.60;98.20;;;;;;5034815;28;20514;-81
2023/05/13 07:45:30;;;;;;;2.30;2.00;;;18.60;98.20;;;;;;5034844;28;20987;-82
2023/05/13 07:47:57;;;;;;;1.50;0.90;;;18.60;98.20;;;;;;5049597;28;20477;-83
2023/05/13 07:50:25;;;;;;;1.50;0.90;;;18.60;98.20;;;;;;5037481;28;20493;-83
2023/05/13 07:52:52;;;;;;;1.50;0.90;;;18.70;98.20;;;;;;5034326;28;20482;-81
2023/05/13 07:55:20;;;;;;;1.50;0.90;;;18.70;98.20;;;;;;5032964;28;20494;-81
2023/05/13 07:57:47;;;;;;;1.50;0.90;;;18.80;98.20;;;;;;5034072;28;20957;-82
2023/05/13 08:00:15;;;;;;;1.60;1.20;;;19.10;98.20;;;;;;5035901;28;20522;-81
2023/05/13 08:02:43;;;;;;;1.50;0.90;;;19.30;98.20;;;;;;5032537;28;20496;-81
2023/05/13 08:05:11;;;;;;;1.50;0.90;;;19.60;98.20;;;;;;5035105;28;20896;-81
2023/05/13 08:07:39;;;;;;;1.50;0.90;;;19.80;98.20;;;;;;5047501;28;20516;-82
2023/05/13 08:10:07;;;;;;;1.50;0.90;;;19.90;98.20;;;;;;5035979;28;20550;-81
2023/05/13 08:12:33;;;;;;;1.50;0.90;;;20.00;98.20;;;;;;5041196;28;20611;-81
2023/05/13 08:15:02;;;;;;;1.50;0.90;;;20.10;98.20;;;;;;5036986;28;20463;-82
2023/05/13 08:17:29;;;;;;;1.50;0.90;;;20.10;98.20;;;;;;5032116;28;20991;-82
2023/05/13 08:19:56;;;;;;;1.50;0.90;;;20.10;98.20;;;;;;5038692;28;20483;-82
2023/05/13 08:22:23;;;;;;;1.50;0.90;;;20.10;98.20;;;;;;5024691;28;20983;-81
2023/05/13 08:27:34;;;;;;;1.50;0.90;;;20.20;98.20;;;;;;5046741;28;21063;-81
2023/05/13 08:30:00;;;;;;;1.50;1.00;;;20.30;98.20;;;;;;5030645;28;20510;-82
2023/05/13 08:32:27;;;;;;;1.50;0.90;;;20.40;98.20;;;;;;5021678;28;21213;-83
2023/05/13 08:34:55;;;;;;;1.50;0.90;;;20.50;98.20;;;;;;5031619;28;20817;-81
2023/05/13 08:37:51;;;;;;;1.50;0.90;;;20.50;98.20;;;;;;5047236;28;20515;-82
2023/05/13 08:40:20;;;;;;;1.50;0.90;;;20.50;98.20;;;;;;5029862;28;20463;-81
2023/05/13 08:42:50;;;;;;;1.50;0.90;;;20.60;98.20;;;;;;5044383;28;20473;-83
2023/05/13 08:45:21;;;;;;;1.50;0.90;;;20.70;97.90;;;;;;5032503;28;20463;-81
2023/05/13 08:47:51;;;;;;;1.50;0.90;;;20.80;98.10;;;;;;5036830;28;20491;-80
2023/05/13 08:50:20;;;;;;;1.50;0.90;;;20.90;98.20;;;;;;5028191;28;20462;-81
2023/05/13 08:52:47;;;;;;;1.50;0.90;;;20.90;98.20;;;;;;5025327;28;20514;-81
2023/05/13 08:55:14;;;;;;;1.50;0.90;;;21.00;98.20;;;;;;5029540;28;21119;-81
2023/05/13 08:57:43;;;;;;;1.50;0.90;;;21.10;98.20;;;;;;5041420;28;20489;-80
2023/05/13 09:00:13;;;;;;;1.50;0.90;;;21.20;98.20;;;;;;5030015;28;20617;-81
2023/05/13 09:02:43;;;;;;;1.50;0.90;;;21.40;98.20;;;;;;5043643;28;20553;-82
2023/05/13 09:05:11;;;;;;;1.50;0.90;;;21.70;97.70;;;;;;5031830;28;21015;-82
2023/05/13 09:07:41;;;;;;;1.50;0.90;;;22.10;96.50;;;;;;5024014;28;20623;-82
2023/05/13 09:10:09;;;;;;;1.50;0.90;;;22.40;96.20;;;;;;5026180;28;20495;-81
2023/05/13 09:12:45;;;;;;;1.50;0.90;;;22.70;95.90;;;;;;5040473;28;20523;-82
2023/05/13 09:15:13;;;;;;;1.50;0.90;;;23.00;95.40;;;;;;5024623;28;20461;-81
2023/05/13 09:17:42;;;;;;;1.50;0.90;;;23.20;94.30;;;;;;5042059;28;20494;-82
2023/05/13 09:21:16;;;;;;;1.50;0.87;;;23.50;94.10;;;;;;5029838;28;20474;-82
2023/05/13 09:24:37;;;;;;;1.50;0.90;;;23.80;90.50;;;;;;4857844;29;20978;-84
2023/05/13 09:27:05;;;;;;;2.17;0.90;;;24.20;90.60;;;;;;4986244;28;20760;-81
2023/05/13 09:29:34;;;;;;;1.50;0.80;;;24.30;88.00;;;;;;5039379;28;20459;-81
2023/05/13 09:32:06;;;;;;;1.50;0.90;;;24.20;89.10;;;;;;5034266;28;20508;-81
2023/05/13 09:34:35;;;;;;;1.50;0.90;;;24.10;88.50;;;;;;5038962;28;20467;-82
2023/05/13 09:37:03;;;;;;;1.50;0.90;;;24.00;88.50;;;;;;5026738;28;20490;-82
2023/05/13 09:39:32;;;;;;;1.50;0.90;;;24.10;89.20;;;;;;5035322;28;20468;-83
2023/05/13 09:42:01;;;;;;;1.50;0.90;;;24.30;88.30;;;;;;5023193;28;20478;-83
2023/05/13 09:44:46;;;;;;;2.23;1.53;;;24.60;87.20;;;;;;5039155;28;20469;-85
2023/05/13 09:47:14;;;;;;;1.50;0.80;;;24.80;86.10;;;;;;5038675;28;20977;-81
2023/05/13 09:49:41;;;;;;;1.70;1.10;;;24.80;86.00;;;;;;5035364;28;20538;-82
2023/05/13 09:52:10;;;;;;;1.50;0.90;;;24.80;86.80;;;;;;5032372;28;20582;-83
2023/05/13 09:54:38;;;;;;;1.50;0.90;;;25.00;86.70;;;;;;5038257;28;20466;-81
2023/05/13 09:57:20;;;;;;;1.50;0.80;;;25.20;85.30;;;;;;5035100;28;20485;-81
2023/05/13 09:59:52;;;;;;;1.50;0.90;;;25.30;83.80;;;;;;5033712;28;20459;-82
2023/05/13 10:02:23;;;;;;;1.50;0.90;;;25.40;81.50;;;;;;5038269;28;20482;-82
2023/05/13 10:04:52;;;;;;;1.50;0.83;;;25.40;81.00;;;;;;5032530;28;20459;-80
2023/05/13 10:07:23;;;;;;;1.50;0.90;;;25.60;78.80;;;;;;5025469;28;20478;-83
2023/05/13 10:10:20;;;;;;;1.50;0.80;;;25.70;83.10;;;;;;5032065;28;20480;-83
2023/05/13 10:19:19;;;;;;;1.50;0.80;;;26.20;79.10;;;;;;5049493;28;20571;-84
2023/05/13 10:25:16;;;;;;;1.43;0.80;;;26.30;77.20;;;;;;5032935;28;20955;-82
2023/05/13 10:27:44;;;;;;;1.70;1.40;;;26.40;76.90;;;;;;5033183;28;20501;-85
2023/05/13 10:30:13;;;;;;;1.50;0.90;;;26.50;76.00;;;;;;5039242;28;20454;-84
2023/05/13 10:32:51;;;;;;;1.50;0.80;;;26.70;76.20;;;;;;5051111;28;20491;-85
2023/05/13 10:35:24;;;;;;;1.50;0.90;;;26.80;74.60;;;;;;5034276;28;20473;-85
2023/05/13 10:38:03;;;;;;;1.50;0.90;;;26.80;74.60;;;;;;5037337;28;20492;-83
2023/05/13 10:41:10;;;;;;;1.50;0.80;;;26.90;73.80;;;;;;5019811;28;20466;-83
2023/05/13 10:43:59;;;;;;;1.80;1.10;;;27.10;74.50;;;;;;5007797;28;20470;-83
2023/05/13 10:46:45;;;;;;;1.50;0.80;;;27.30;73.20;;;;;;5030272;28;20523;-84
2023/05/13 10:49:17;;;;;;;1.50;0.90;;;27.30;72.30;;;;;;5047333;28;20931;-82
2023/05/13 10:51:48;;;;;;;1.50;0.90;;;27.20;72.20;;;;;;5029495;28;20540;-83
2023/05/13 10:54:20;;;;;;;1.50;0.80;;;27.30;70.60;;;;;;5041922;28;20466;-85
2023/05/13 10:57:03;;;;;;;1.50;0.90;;;27.40;73.20;;;;;;5015515;28;21229;-84
2023/05/13 11:08:41;;;;;;;1.50;0.90;;;27.60;69.30;;;;;;5223520;23;21029;-85
2023/05/13 11:15:35;;;;;;;1.50;0.80;;;27.60;66.10;;;;;;4943207;28;20465;-82
2023/05/13 11:24:13;;;;;;;1.40;0.80;;;27.20;66.50;;;;;;4990967;28;20503;-83
2023/05/13 11:27:20;;;;;;;1.50;0.80;;;27.10;65.40;;;;;;4986675;28;20994;-84
2023/05/13 11:29:53;;;;;;;1.43;0.87;;;27.10;66.20;;;;;;4998630;28;20574;-82
2023/05/13 11:33:11;;;;;;;1.43;0.80;;;27.20;66.10;;;;;;4983904;28;20475;-82
2023/05/13 11:39:14;;;;;;;1.70;1.10;;;27.30;65.80;;;;;;5028996;23;21021;-87
2023/05/13 11:42:22;;;;;;;1.47;0.80;;;27.40;65.70;;;;;;4983470;28;20484;-83
2023/05/13 11:45:39;;;;;;;1.47;0.80;;;27.60;66.20;;;;;;4969722;28;20502;-83
2023/05/13 11:48:20;;;;;;;1.90;1.07;;;27.60;66.60;;;;;;4966327;28;20563;-86
2023/05/13 11:50:56;;;;;;;1.47;0.80;;;27.70;65.20;;;;;;4949894;28;20477;-85
2023/05/13 11:53:27;;;;;;;2.80;2.57;;;27.80;65.70;;;;;;4936672;28;20472;-86
2023/05/13 11:58:29;;;;;;;2.13;1.37;;;27.50;63.80;;;;;;5071808;23;21002;-85
2023/05/13 12:01:13;;;;;;;1.47;0.87;;;27.70;65.10;;;;;;5021790;28;20483;-85
2023/05/13 12:03:44;;;;;;;1.50;0.90;;;27.90;64.40;;;;;;5050495;28;21041;-82
2023/05/13 12:09:09;;;;;;;1.43;0.80;;;27.60;63.30;;;;;;5025411;28;21319;-82
2023/05/13 12:11:52;;;;;;;1.47;0.80;;;27.30;66.70;;;;;;5037217;28;20475;-83
2023/05/13 12:14:32;;;;;;;1.43;0.87;;;26.50;66.90;;;;;;5051291;28;20511;-83
2023/05/13 12:17:07;;;;;;;1.47;0.80;;;25.70;66.90;;;;;;5042409;28;20494;-83
2023/05/13 12:19:36;;;;;;;1.47;0.83;;;24.90;67.70;;;;;;5054830;28;20964;-81
2023/05/13 12:22:38;;;;;;;1.43;0.90;;;24.30;69.80;;;;;;5043675;28;20595;-85
2023/05/13 12:25:40;;;;;;;1.43;0.90;;;24.00;70.50;;;;;;4970243;28;20467;-81
2023/05/13 12:28:15;;;;;;;8.93;2.60;;;24.00;69.80;;;;;;5039823;28;20510;-82
2023/05/13 12:30:49;;;;;;;1.50;0.90;;;23.90;70.40;;;;;;5043494;28;20483;-84
2023/05/13 12:33:17;;;;;;;1.43;0.90;;;23.80;70.30;;;;;;5028160;28;20469;-82
2023/05/13 12:35:52;;;;;;;1.47;0.90;;;23.80;70.90;;;;;;5048009;28;21053;-82
2023/05/13 12:38:23;;;;;;;1.40;0.80;;;23.70;70.40;;;;;;5038859;28;20479;-83
2023/05/13 12:41:14;;;;;;;1.43;0.90;;;23.50;70.80;;;;;;5040758;28;20458;-86
2023/05/13 12:43:44;;;;;;;1.47;0.90;;;23.40;70.70;;;;;;5052955;28;20474;-82
2023/05/13 12:46:14;;;;;;;1.47;0.80;;;23.60;70.80;;;;;;5033699;28;20760;-84
2023/05/13 12:48:42;;;;;;;1.40;0.87;;;24.00;71.70;;;;;;5056190;28;20991;-83
2023/05/13 12:51:10;;;;;;;1.50;0.90;;;24.20;70.00;;;;;;5032155;28;20904;-83
2023/05/13 12:53:37;;;;;;;1.50;0.90;;;24.10;70.50;;;;;;5054243;28;20457;-83
2023/05/13 12:56:05;;;;;;;1.50;0.90;;;23.90;70.00;;;;;;5030563;28;20458;-81
2023/05/13 12:58:35;;;;;;;1.47;0.90;;;23.80;71.60;;;;;;5044729;28;20599;-83
2023/05/13 13:01:04;;;;;;;1.50;0.80;;;23.70;71.40;;;;;;5033521;28;20462;-83
2023/05/13 13:03:49;;;;;;;1.50;0.80;;;23.60;69.90;;;;;;5060826;28;21397;-84
2023/05/13 13:06:28;;;;;;;1.47;0.90;;;23.60;70.10;;;;;;5045398;28;20476;-85
2023/05/13 13:09:04;;;;;;;1.47;0.90;;;23.50;69.70;;;;;;5061038;28;20761;-82
2023/05/13 13:11:57;;;;;;;1.50;0.90;;;23.80;70.20;;;;;;5042780;28;20699;-87
2023/05/13 13:14:25;;;;;;;1.50;0.83;;;24.30;70.60;;;;;;5053056;28;20507;-81
2023/05/13 13:16:53;;;;;;;1.50;0.83;;;24.50;67.60;;;;;;5031414;28;20889;-83
2023/05/13 13:19:23;;;;;;;1.40;0.90;;;24.40;66.40;;;;;;5051479;28;20964;-81
2023/05/13 13:21:54;;;;;;;1.47;0.90;;;24.20;67.10;;;;;;5036425;28;20472;-86
2023/05/13 13:24:22;;;;;;;1.47;0.80;;;23.90;67.30;;;;;;5049614;28;20560;-83
2023/05/13 13:27:01;;;;;;;1.50;0.90;;;23.70;69.30;;;;;;5041792;28;20495;-82
2023/05/13 13:33:04;;;;;;;1.47;0.90;;;23.20;74.60;;;;;;4964271;22;20581;-79
2023/05/13 13:35:34;;;;;;;1.40;0.80;;;22.80;78.80;;;;;;5001267;28;20731;-82
2023/05/13 13:38:02;;;;;;;1.47;0.90;;;22.50;82.30;;;;;;4989671;28;20483;-83
2023/05/13 13:40:32;;;;;;;1.50;0.90;;;22.40;81.20;;;;;;5000986;28;20897;-85
2023/05/13 13:43:02;;;;;;;1.47;0.83;;;22.40;79.80;;;;;;4990909;28;20483;-84
2023/05/13 13:45:33;;;;;;;1.47;0.90;;;22.40;79.30;;;;;;5002883;28;20523;-82
2023/05/13 13:48:02;;;;;;;1.47;0.90;;;22.70;78.90;;;;;;5000217;28;20483;-83
2023/05/13 13:50:45;;;;;;;1.50;0.90;;;23.10;75.70;;;;;;5011274;28;20463;-84